Avoca, Michigan
Current Conditions -  °F | °C
As of 8:57 PM on Monday 24 Nov 2014 (Local Time) from KPHN Reporting Station
Overcast Overcast  
Wind Chill: 30°   Ceiling: 2400
Heat Index: 37°   Visibility: 10mi
Dew Point: 30°   Wind: 12mph
Humidity: 75%   Direction: 220°SW
Pressure: 29.56"   Gusts: 28mph
Location:  43.06°N, 82.69°W
Report Text: KPHN 250157Z AUTO 22010G24KT 180V250 10SM OVC024 03/M01 A2956 RMK AO2
Loading
Personal Weather Stations






























Interactive Weather Map New forecast layout! Learn more

10-Day Weather Forecast

Advertisements
Track Severe Weather on mobile